Time;durP1;ratioP1;P1;durP2;ratioP2;P2;SDS_P1;SDS_P2;PMS_P1;PMS_P2;Temp;Humidity;BMP_temperature;BMP_pressure;BME280_temperature;BME280_humidity;BME280_pressure;Samples;Min_cycle;Max_cycle;Signal;HPM_P1;HPM_P2
2024/02/03 00:01:13;;;;;;;11.95;5.82;;;3.00;63.40;;;;;;5092321;28;20501;-70
2024/02/03 00:03:39;;;;;;;7.03;4.63;;;3.00;63.50;;;;;;5093232;28;20071;-71
2024/02/03 00:06:05;;;;;;;7.93;4.72;;;3.00;63.50;;;;;;5093359;28;20060;-70
2024/02/03 00:08:31;;;;;;;16.40;5.38;;;2.90;63.60;;;;;;5091688;28;20123;-70
2024/02/03 00:10:57;;;;;;;;;;;2.80;63.70;;;;;;5074581;28;20043;-71
2024/02/03 00:13:23;;;;;;;16.73;4.57;;;2.80;63.60;;;;;;5093379;28;19918;-70
2024/02/03 00:15:49;;;;;;;5.13;3.30;;;2.80;64.40;;;;;;5092020;28;20462;-71
2024/02/03 00:18:15;;;;;;;13.93;5.78;;;2.70;63.60;;;;;;5074860;28;20067;-71
2024/02/03 00:20:41;;;;;;;8.85;7.22;;;2.70;63.80;;;;;;5091722;28;20043;-71
2024/02/03 00:23:07;;;;;;;8.95;3.83;;;2.70;64.00;;;;;;5074756;28;20501;-71
2024/02/03 00:25:33;;;;;;;10.65;6.00;;;2.70;64.00;;;;;;5093529;28;20040;-71
2024/02/03 00:28:00;;;;;;;11.15;6.15;;;2.70;64.10;;;;;;5092083;28;20459;-70
2024/02/03 00:30:27;;;;;;;16.75;7.65;;;2.70;64.40;;;;;;5074239;28;20040;-72
2024/02/03 00:32:53;;;;;;;12.70;6.25;;;2.60;64.50;;;;;;5092444;28;20057;-74
2024/02/03 00:35:19;;;;;;;11.30;7.40;;;2.60;64.50;;;;;;5091044;28;20032;-73
2024/02/03 00:37:46;;;;;;;9.77;6.47;;;2.50;64.50;;;;;;5091197;28;20067;-73
2024/02/03 00:40:12;;;;;;;9.05;4.65;;;2.40;64.50;;;;;;5090285;28;20039;-73
2024/02/03 00:42:38;;;;;;;;;;;2.40;64.50;;;;;;5092911;28;20477;-72
2024/02/03 00:45:05;;;;;;;6.50;4.93;;;2.30;64.80;;;;;;5091887;28;19923;-73
2024/02/03 00:47:31;;;;;;;12.95;7.72;;;2.20;64.60;;;;;;5091538;28;20388;-69
2024/02/03 00:49:57;;;;;;;8.00;5.75;;;2.20;64.80;;;;;;5093072;28;20044;-74
2024/02/03 00:52:23;;;;;;;9.57;4.60;;;2.20;64.90;;;;;;5092363;28;20044;-73
2024/02/03 00:54:49;;;;;;;18.33;9.07;;;2.20;65.00;;;;;;5093003;28;20046;-74
2024/02/03 00:57:15;;;;;;;10.40;5.22;;;2.10;65.10;;;;;;5091454;28;20040;-74
2024/02/03 00:59:41;;;;;;;13.27;5.80;;;2.10;65.10;;;;;;5092610;28;20032;-73
2024/02/03 01:02:08;;;;;;;9.75;6.22;;;2.10;65.00;;;;;;5092342;28;20036;-71
2024/02/03 01:04:34;;;;;;;14.15;8.40;;;2.10;65.00;;;;;;5091313;28;20397;-71
2024/02/03 01:07:01;;;;;;;11.13;4.45;;;2.10;65.00;;;;;;5091384;28;20115;-71
2024/02/03 01:09:27;;;;;;;10.32;5.13;;;2.10;65.00;;;;;;5092013;28;20111;-71
2024/02/03 01:11:55;;;;;;;7.65;4.53;;;2.00;65.00;;;;;;5073044;28;20060;-70
2024/02/03 01:14:21;;;;;;;6.80;5.22;;;2.00;65.00;;;;;;5090467;28;20028;-70
2024/02/03 01:16:48;;;;;;;6.93;4.45;;;1.90;65.40;;;;;;5092012;28;20036;-72
2024/02/03 01:19:14;;;;;;;6.82;3.40;;;1.90;65.60;;;;;;5090136;28;20263;-71
2024/02/03 01:21:40;;;;;;;4.38;2.72;;;1.90;65.50;;;;;;5090987;28;20044;-71
2024/02/03 01:24:06;;;;;;;10.30;4.80;;;1.90;65.70;;;;;;5091793;28;20489;-71
2024/02/03 01:26:32;;;;;;;4.57;2.92;;;1.90;65.70;;;;;;5090960;28;20036;-71
2024/02/03 01:28:58;;;;;;;14.80;4.57;;;1.90;65.80;;;;;;5090883;28;20036;-71
2024/02/03 01:31:24;;;;;;;5.07;4.05;;;1.90;65.90;;;;;;5091515;28;20043;-74
2024/02/03 01:33:50;;;;;;;7.53;4.85;;;1.90;66.00;;;;;;5091127;28;20035;-74
2024/02/03 01:36:16;;;;;;;9.50;4.78;;;1.90;66.00;;;;;;5091028;28;20052;-73
2024/02/03 01:38:48;;;;;;;11.15;4.97;;;1.90;66.00;;;;;;5090911;28;20045;-70
2024/02/03 01:41:15;;;;;;;12.32;6.15;;;1.90;66.00;;;;;;5091468;28;20108;-73
2024/02/03 01:43:41;;;;;;;11.13;4.57;;;1.80;65.90;;;;;;5091516;28;20047;-73
2024/02/03 01:46:07;;;;;;;8.00;4.82;;;1.90;66.40;;;;;;5073241;28;20119;-73
2024/02/03 01:48:34;;;;;;;7.28;4.40;;;1.80;66.50;;;;;;5091453;28;20036;-73
2024/02/03 01:51:00;;;;;;;7.70;4.47;;;1.70;66.40;;;;;;5089844;28;20282;-73
2024/02/03 01:53:26;;;;;;;8.35;4.47;;;1.80;65.80;;;;;;5090787;28;20032;-71
2024/02/03 01:55:53;;;;;;;;;;;1.70;65.70;;;;;;5092634;28;20040;-71
2024/02/03 01:58:20;;;;;;;13.18;5.07;;;1.70;65.70;;;;;;5073653;28;20029;-71
2024/02/03 02:00:46;;;;;;;9.38;5.15;;;1.70;66.30;;;;;;5090508;28;20420;-71
2024/02/03 02:03:31;;;;;;;11.57;5.25;;;1.70;66.60;;;;;;5089803;28;20062;-71
2024/02/03 02:05:57;;;;;;;5.85;3.90;;;1.70;67.10;;;;;;5091341;28;20119;-73
2024/02/03 02:08:38;;;;;;;5.75;2.95;;;1.60;67.30;;;;;;5074097;28;20032;-73
2024/02/03 02:11:06;;;;;;;6.38;4.28;;;1.60;67.50;;;;;;5089385;28;20040;-73
2024/02/03 02:13:32;;;;;;;7.20;3.85;;;1.60;67.20;;;;;;5089878;28;20124;-70
2024/02/03 02:15:58;;;;;;;;;;;1.60;67.50;;;;;;5090300;28;20093;-71
2024/02/03 02:18:25;;;;;;;7.63;4.95;;;1.60;67.50;;;;;;5090757;28;19920;-73
2024/02/03 02:20:52;;;;;;;6.25;3.75;;;1.50;67.40;;;;;;5089208;28;20068;-71
2024/02/03 02:23:18;;;;;;;7.72;3.90;;;1.50;67.70;;;;;;5092947;28;20489;-71
2024/02/03 02:25:44;;;;;;;9.77;5.15;;;1.50;67.60;;;;;;5096084;28;20036;-70
2024/02/03 02:28:10;;;;;;;8.02;3.53;;;1.50;67.70;;;;;;5094469;28;20072;-73
2024/02/03 02:30:36;;;;;;;6.53;4.43;;;1.50;67.90;;;;;;5094706;28;20040;-73
2024/02/03 02:33:03;;;;;;;6.70;4.10;;;1.40;68.00;;;;;;5095119;28;20372;-70
2024/02/03 02:35:29;;;;;;;;;;;1.40;68.10;;;;;;5096006;28;20052;-71
2024/02/03 02:37:55;;;;;;;8.35;3.45;;;1.40;68.10;;;;;;5094054;28;19916;-70
2024/02/03 02:40:21;;;;;;;7.80;4.28;;;1.40;68.00;;;;;;5093480;28;20127;-71
2024/02/03 02:42:47;;;;;;;8.10;4.18;;;1.40;68.60;;;;;;5095222;28;20504;-70
2024/02/03 02:45:13;;;;;;;8.23;4.20;;;1.40;68.30;;;;;;5076546;28;20040;-70
2024/02/03 02:47:39;;;;;;;6.18;3.95;;;1.40;68.20;;;;;;5093465;28;20035;-70
2024/02/03 02:50:06;;;;;;;10.35;5.22;;;1.40;67.80;;;;;;5092783;28;20047;-71
2024/02/03 02:52:32;;;;;;;7.47;4.30;;;1.40;67.70;;;;;;5094350;28;20028;-70
2024/02/03 02:54:58;;;;;;;4.55;3.67;;;1.40;68.10;;;;;;5093553;28;20178;-71
2024/02/03 02:57:24;;;;;;;4.18;2.47;;;1.40;67.80;;;;;;5092953;28;20567;-71
2024/02/03 02:59:50;;;;;;;10.05;4.82;;;1.40;67.80;;;;;;5094493;28;20028;-71
2024/02/03 03:02:16;;;;;;;5.78;4.53;;;1.40;68.00;;;;;;5075589;28;20047;-71
2024/02/03 03:04:42;;;;;;;5.68;3.90;;;1.30;68.30;;;;;;5094820;28;20032;-71
2024/02/03 03:07:08;;;;;;;;;;;1.30;68.40;;;;;;5076710;28;20255;-71
2024/02/03 03:09:34;;;;;;;14.80;5.13;;;1.30;68.60;;;;;;5093240;28;20395;-70
2024/02/03 03:12:00;;;;;;;6.78;4.60;;;1.20;68.70;;;;;;5092383;28;20089;-71
2024/02/03 03:14:26;;;;;;;8.38;4.22;;;1.20;69.30;;;;;;5094139;28;20028;-71
2024/02/03 03:16:53;;;;;;;12.05;4.50;;;1.20;69.50;;;;;;5092526;28;20114;-70
2024/02/03 03:19:19;;;;;;;4.60;3.20;;;1.20;69.50;;;;;;5093674;28;20488;-70
2024/02/03 03:21:45;;;;;;;3.72;2.20;;;1.20;69.50;;;;;;5092138;28;20048;-71
2024/02/03 03:24:11;;;;;;;3.42;2.00;;;1.20;69.20;;;;;;5076148;28;20071;-70
2024/02/03 03:26:42;;;;;;;8.07;2.38;;;1.20;68.90;;;;;;5094916;28;20123;-71
2024/02/03 03:29:08;;;;;;;4.75;2.35;;;1.20;68.70;;;;;;5093232;28;20556;-71
2024/02/03 03:31:35;;;;;;;8.23;3.63;;;1.20;68.80;;;;;;5075845;28;20524;-70
2024/02/03 03:34:01;;;;;;;8.88;3.78;;;1.20;69.10;;;;;;5094301;28;20108;-71
2024/02/03 03:36:27;;;;;;;6.35;2.72;;;1.20;68.90;;;;;;5094362;28;20455;-71
2024/02/03 03:38:53;;;;;;;4.53;2.00;;;1.20;69.00;;;;;;5094123;28;20035;-70
2024/02/03 03:41:19;;;;;;;5.45;3.25;;;1.20;68.90;;;;;;5093715;28;20040;-71
2024/02/03 03:43:47;;;;;;;5.88;2.83;;;1.20;68.70;;;;;;5094311;28;20035;-70
2024/02/03 03:46:13;;;;;;;6.35;2.88;;;1.20;68.80;;;;;;5076369;28;20036;-71
2024/02/03 03:48:39;;;;;;;3.50;2.10;;;1.20;69.00;;;;;;5094120;28;20036;-71
2024/02/03 03:51:05;;;;;;;2.67;1.65;;;1.20;68.90;;;;;;5091928;28;20047;-70
2024/02/03 03:53:31;;;;;;;8.00;4.22;;;1.20;68.80;;;;;;5094259;28;20377;-71
2024/02/03 03:55:58;;;;;;;9.45;3.38;;;1.20;68.90;;;;;;5093700;28;20047;-71
2024/02/03 03:58:24;;;;;;;7.13;3.55;;;1.20;69.00;;;;;;5092559;28;20044;-71
2024/02/03 04:00:50;;;;;;;9.27;4.60;;;1.20;69.90;;;;;;5092797;28;20032;-71
2024/02/03 04:03:16;;;;;;;7.13;3.05;;;1.20;69.10;;;;;;5093223;28;20043;-73
2024/02/03 04:05:42;;;;;;;4.70;2.47;;;1.10;69.10;;;;;;5092150;28;20484;-73
2024/02/03 04:08:10;;;;;;;4.88;2.10;;;1.10;69.60;;;;;;5075022;28;20088;-74
2024/02/03 04:10:36;;;;;;;2.80;2.10;;;1.10;69.30;;;;;;5091373;28;20032;-74
2024/02/03 04:13:03;;;;;;;5.15;3.22;;;1.00;68.80;;;;;;5091748;28;20028;-74
2024/02/03 04:15:29;;;;;;;6.47;2.25;;;0.90;68.10;;;;;;5091479;28;20439;-73
2024/02/03 04:17:57;;;;;;;3.40;2.58;;;0.80;68.90;;;;;;5091603;28;20059;-74
2024/02/03 04:20:44;;;;;;;4.28;2.78;;;0.80;68.90;;;;;;5074067;28;20492;-71
2024/02/03 04:23:10;;;;;;;7.97;3.95;;;0.80;68.80;;;;;;5074729;28;20077;-70
2024/02/03 04:25:36;;;;;;;6.80;3.47;;;0.80;68.80;;;;;;5074534;28;20469;-70
2024/02/03 04:28:02;;;;;;;4.50;2.60;;;0.90;68.90;;;;;;5091703;28;20489;-71
2024/02/03 04:30:28;;;;;;;5.28;3.25;;;0.80;69.60;;;;;;5092151;28;20055;-71
2024/02/03 04:32:54;;;;;;;5.20;2.85;;;0.80;68.90;;;;;;5092619;28;20488;-70
2024/02/03 04:35:21;;;;;;;6.38;3.25;;;0.80;68.70;;;;;;5092496;28;20440;-71
2024/02/03 04:37:47;;;;;;;;;;;0.80;68.10;;;;;;5074795;28;20080;-71
2024/02/03 04:40:13;;;;;;;4.72;2.42;;;0.80;68.70;;;;;;5091460;28;19924;-72
2024/02/03 04:42:39;;;;;;;3.35;2.10;;;0.80;68.70;;;;;;5092477;28;20024;-74
2024/02/03 04:45:06;;;;;;;6.15;3.38;;;0.80;68.60;;;;;;5090533;28;20050;-73
2024/02/03 04:47:32;;;;;;;4.50;2.25;;;0.80;68.40;;;;;;5073893;28;20111;-74
2024/02/03 04:49:58;;;;;;;4.45;2.80;;;0.90;68.90;;;;;;5092722;28;20043;-74
2024/02/03 04:52:24;;;;;;;6.10;3.00;;;0.80;68.70;;;;;;5090272;28;20492;-73
2024/02/03 04:54:50;;;;;;;8.40;4.28;;;0.80;68.60;;;;;;5092247;28;20066;-74
2024/02/03 04:57:16;;;;;;;5.45;2.88;;;0.80;68.50;;;;;;5090636;28;20124;-73
2024/02/03 04:59:44;;;;;;;4.43;1.83;;;0.80;68.60;;;;;;5073740;28;20070;-73
2024/02/03 05:02:10;;;;;;;5.43;3.28;;;0.80;68.60;;;;;;5091896;28;20028;-72
2024/02/03 05:04:36;;;;;;;4.05;2.58;;;0.80;68.50;;;;;;5091960;28;20032;-71
2024/02/03 05:07:02;;;;;;;8.25;3.75;;;0.80;68.50;;;;;;5091837;28;20043;-71
2024/02/03 05:09:28;;;;;;;3.80;3.08;;;0.80;68.50;;;;;;5090932;28;20127;-71
2024/02/03 05:11:54;;;;;;;5.32;3.47;;;0.80;68.40;;;;;;5089676;28;20094;-70
2024/02/03 05:14:20;;;;;;;4.07;3.03;;;0.80;68.30;;;;;;5090681;28;20028;-71
2024/02/03 05:16:46;;;;;;;5.13;3.38;;;0.80;68.40;;;;;;5090515;28;20033;-72
2024/02/03 05:19:12;;;;;;;4.78;2.65;;;0.80;68.40;;;;;;5090194;28;20031;-70
2024/02/03 05:21:44;;;;;;;2.53;1.60;;;0.80;68.10;;;;;;5089715;28;20040;-70
2024/02/03 05:24:10;;;;;;;3.42;2.25;;;0.80;68.00;;;;;;5090452;28;20086;-71
2024/02/03 05:26:36;;;;;;;6.30;3.00;;;0.70;68.20;;;;;;5073327;28;20036;-73
2024/02/03 05:29:02;;;;;;;3.55;2.20;;;0.70;68.60;;;;;;5090319;28;20070;-73
2024/02/03 05:31:28;;;;;;;2.85;2.15;;;0.60;68.70;;;;;;5091476;28;20093;-73
2024/02/03 05:33:54;;;;;;;6.97;4.28;;;0.60;68.90;;;;;;5090960;28;20024;-74
2024/02/03 05:36:21;;;;;;;5.90;2.03;;;0.60;69.00;;;;;;5090906;28;20054;-74
2024/02/03 05:38:47;;;;;;;2.50;1.90;;;0.60;68.90;;;;;;5091888;28;20032;-73
2024/02/03 05:41:13;;;;;;;5.32;3.15;;;0.60;68.90;;;;;;5090784;28;20443;-74
2024/02/03 05:43:39;;;;;;;3.22;2.53;;;0.60;68.90;;;;;;5090131;28;20485;-73
2024/02/03 05:46:05;;;;;;;4.13;1.60;;;0.70;69.00;;;;;;5090053;28;20032;-73
2024/02/03 05:48:31;;;;;;;1.92;1.42;;;0.70;68.90;;;;;;5091243;28;20044;-71
2024/02/03 05:50:57;;;;;;;2.90;1.42;;;0.70;69.50;;;;;;5089361;28;20048;-71
2024/02/03 05:53:23;;;;;;;6.07;2.85;;;0.70;69.30;;;;;;5091161;28;20024;-70
2024/02/03 05:55:49;;;;;;;4.50;2.60;;;0.70;69.20;;;;;;5090812;28;20546;-72
2024/02/03 05:58:16;;;;;;;5.18;2.47;;;0.70;69.40;;;;;;5089178;28;20087;-70
2024/02/03 06:00:42;;;;;;;5.28;1.75;;;0.70;69.20;;;;;;5089240;28;20405;-71
2024/02/03 06:03:08;;;;;;;5.15;3.22;;;0.70;69.10;;;;;;5091207;28;20028;-71
2024/02/03 06:05:34;;;;;;;7.13;3.28;;;0.70;69.20;;;;;;5091147;28;20037;-72
2024/02/03 06:08:00;;;;;;;2.75;1.45;;;0.80;69.00;;;;;;5072892;28;20036;-70
2024/02/03 06:10:26;;;;;;;5.35;2.30;;;0.80;69.00;;;;;;5089117;28;20036;-71
2024/02/03 06:12:52;;;;;;;7.85;4.25;;;0.80;68.80;;;;;;5089756;28;20059;-71
2024/02/03 06:15:18;;;;;;;16.95;8.43;;;0.80;68.80;;;;;;5072683;28;20040;-73
2024/02/03 06:17:44;;;;;;;6.72;3.42;;;0.80;68.80;;;;;;5089678;28;20040;-74
2024/02/03 06:20:11;;;;;;;5.43;3.75;;;0.80;68.80;;;;;;5089025;28;20028;-74
2024/02/03 06:22:38;;;;;;;8.20;3.15;;;0.80;68.20;;;;;;5091043;28;20036;-71
2024/02/03 06:25:04;;;;;;;3.20;1.73;;;0.80;68.50;;;;;;5089624;28;20054;-71
2024/02/03 06:27:30;;;;;;;7.72;3.53;;;0.80;67.90;;;;;;5089519;28;20103;-70
2024/02/03 06:29:56;;;;;;;3.45;2.03;;;0.80;68.70;;;;;;5089636;28;20044;-72
2024/02/03 06:32:22;;;;;;;7.50;3.47;;;0.80;68.40;;;;;;5090364;28;20094;-70
2024/02/03 06:34:48;;;;;;;4.18;3.15;;;0.80;68.30;;;;;;5072976;28;20033;-70
2024/02/03 06:37:15;;;;;;;4.53;2.20;;;0.90;68.40;;;;;;5090742;28;20392;-71
2024/02/03 06:39:41;;;;;;;4.03;1.48;;;0.90;68.40;;;;;;5089480;28;20115;-72
2024/02/03 06:42:07;;;;;;;15.63;2.78;;;0.90;68.20;;;;;;5088812;28;20513;-70
2024/02/03 06:44:33;;;;;;;9.85;5.03;;;0.90;68.30;;;;;;5089342;28;20527;-71
2024/02/03 06:46:59;;;;;;;3.92;1.80;;;0.90;68.50;;;;;;5090728;28;20051;-71
2024/02/03 06:49:25;;;;;;;7.68;3.13;;;0.90;68.20;;;;;;5090648;28;20516;-70
2024/02/03 06:51:51;;;;;;;2.92;2.17;;;0.90;68.00;;;;;;5088696;28;20044;-74
2024/02/03 06:54:18;;;;;;;4.03;2.05;;;1.00;68.00;;;;;;5090628;28;20502;-74
2024/02/03 06:56:44;;;;;;;;;;;1.00;67.70;;;;;;5090081;28;20105;-74
2024/02/03 06:59:09;;;;;;;3.40;2.67;;;1.00;68.80;;;;;;5090381;28;20019;-73
2024/02/03 07:01:36;;;;;;;8.02;4.13;;;1.00;67.70;;;;;;5088734;28;20550;-74
2024/02/03 07:04:02;;;;;;;4.47;3.08;;;1.10;67.70;;;;;;5089403;28;20020;-70
2024/02/03 07:06:28;;;;;;;9.23;3.38;;;1.10;67.70;;;;;;5089356;28;20048;-72
2024/02/03 07:08:54;;;;;;;4.65;2.80;;;1.20;67.70;;;;;;5091549;28;20035;-70
2024/02/03 07:11:20;;;;;;;5.63;3.08;;;1.30;67.50;;;;;;5075120;28;20032;-71
2024/02/03 07:13:46;;;;;;;12.52;5.22;;;1.40;67.30;;;;;;5075955;28;20546;-70
2024/02/03 07:16:12;;;;;;;12.80;5.47;;;1.40;67.40;;;;;;5092832;28;20070;-72
2024/02/03 07:18:38;;;;;;;8.65;5.35;;;1.50;67.80;;;;;;5093894;28;20063;-71
2024/02/03 07:21:04;;;;;;;9.73;6.55;;;1.50;67.80;;;;;;5075012;28;20436;-72
2024/02/03 07:23:30;;;;;;;;;;;1.50;68.00;;;;;;5094330;28;20071;-70
2024/02/03 07:25:57;;;;;;;13.35;8.57;;;1.60;67.70;;;;;;5093998;28;20257;-71
2024/02/03 07:28:23;;;;;;;18.55;9.45;;;1.60;67.50;;;;;;5092236;28;20021;-71
2024/02/03 07:30:49;;;;;;;16.20;11.32;;;1.70;67.50;;;;;;5075095;28;20066;-71
2024/02/03 07:33:15;;;;;;;19.50;11.55;;;1.80;67.40;;;;;;5091599;28;20656;-70
2024/02/03 07:35:41;;;;;;;22.15;14.32;;;1.90;67.20;;;;;;5075452;28;20476;-71
2024/02/03 07:38:07;;;;;;;10.23;7.28;;;1.90;67.30;;;;;;5093520;28;20484;-70
2024/02/03 07:40:33;;;;;;;8.85;5.63;;;2.00;67.10;;;;;;5091401;28;20040;-70
2024/02/03 07:42:59;;;;;;;12.40;7.28;;;2.00;67.10;;;;;;5075418;28;20028;-70
2024/02/03 07:45:25;;;;;;;7.78;4.07;;;2.00;67.10;;;;;;5093733;28;20040;-70
2024/02/03 07:47:51;;;;;;;10.00;5.68;;;2.00;67.00;;;;;;5079406;28;20040;-71
2024/02/03 07:50:17;;;;;;;6.43;4.75;;;2.10;67.00;;;;;;5072416;28;20143;-71
2024/02/03 07:52:43;;;;;;;5.68;2.40;;;2.20;67.10;;;;;;5090253;28;20034;-71
2024/02/03 07:55:12;;;;;;;6.15;1.77;;;2.20;67.10;;;;;;5075210;28;20455;-72
2024/02/03 07:57:38;;;;;;;6.03;2.90;;;2.20;67.00;;;;;;5092015;28;20051;-72
2024/02/03 08:00:05;;;;;;;3.88;2.65;;;2.30;66.90;;;;;;5092851;28;20044;-71
2024/02/03 08:02:31;;;;;;;7.88;3.88;;;2.30;66.80;;;;;;5074937;28;20028;-70
2024/02/03 08:04:57;;;;;;;8.13;3.50;;;2.40;66.70;;;;;;5093343;28;20037;-73
2024/02/03 08:07:23;;;;;;;19.48;9.05;;;2.50;66.40;;;;;;5093048;28;20043;-71
2024/02/03 08:09:49;;;;;;;13.57;7.95;;;2.60;66.20;;;;;;5091858;28;20040;-71
2024/02/03 08:12:15;;;;;;;12.80;9.63;;;2.70;65.90;;;;;;5092313;28;20048;-71
2024/02/03 08:14:41;;;;;;;27.60;9.38;;;2.80;65.60;;;;;;5091927;28;20081;-70
2024/02/03 08:17:07;;;;;;;12.27;9.68;;;2.90;65.40;;;;;;5086492;28;20412;-71
2024/02/03 08:19:33;;;;;;;17.63;9.73;;;3.00;64.90;;;;;;5070220;28;20043;-72
2024/02/03 08:21:59;;;;;;;18.35;12.88;;;3.10;64.70;;;;;;5070696;28;20561;-71
2024/02/03 08:24:25;;;;;;;24.25;11.13;;;3.20;64.40;;;;;;5071031;28;20048;-71
2024/02/03 08:26:51;;;;;;;18.55;12.48;;;3.30;64.40;;;;;;5071267;28;20040;-71
2024/02/03 08:29:17;;;;;;;17.95;11.30;;;3.40;64.20;;;;;;5089796;28;20055;-71
2024/02/03 08:31:43;;;;;;;18.38;11.30;;;3.40;64.20;;;;;;5091292;28;20048;-71
2024/02/03 08:34:09;;;;;;;20.80;11.43;;;3.50;64.10;;;;;;5070855;28;20166;-71
2024/02/03 08:36:35;;;;;;;15.02;11.68;;;3.60;63.90;;;;;;5072449;28;20161;-70
2024/02/03 08:39:01;;;;;;;33.13;15.52;;;3.70;63.70;;;;;;5070952;28;20144;-71
2024/02/03 08:41:27;;;;;;;24.95;16.17;;;3.90;63.50;;;;;;5070091;28;20139;-71
2024/02/03 08:43:53;;;;;;;41.67;20.50;;;3.90;63.40;;;;;;5070848;28;20030;-71
2024/02/03 08:46:20;;;;;;;19.15;13.30;;;4.00;63.40;;;;;;5072015;28;20398;-70
2024/02/03 08:48:46;;;;;;;31.55;14.35;;;4.10;63.20;;;;;;5070312;28;20040;-71
2024/02/03 08:51:16;;;;;;;23.02;14.77;;;4.20;62.90;;;;;;5069992;28;20068;-71
2024/02/03 08:53:42;;;;;;;23.33;13.20;;;4.30;62.50;;;;;;5072025;28;20078;-71
2024/02/03 08:56:08;;;;;;;13.55;10.30;;;4.60;62.00;;;;;;5070415;28;20040;-71
2024/02/03 08:58:34;;;;;;;22.15;16.05;;;5.10;61.40;;;;;;5070467;28;20428;-71
2024/02/03 09:01:00;;;;;;;33.28;20.13;;;5.90;59.60;;;;;;5053003;28;20402;-71
2024/02/03 09:03:27;;;;;;;19.38;15.40;;;6.40;58.50;;;;;;5071785;28;20370;-71
2024/02/03 09:05:53;;;;;;;15.65;10.07;;;6.70;56.10;;;;;;5071752;28;20037;-72
2024/02/03 09:08:19;;;;;;;11.80;7.95;;;7.10;56.60;;;;;;5070385;28;20375;-72
2024/02/03 09:10:45;;;;;;;7.72;4.90;;;7.60;55.30;;;;;;5071031;28;20040;-71
2024/02/03 09:13:11;;;;;;;11.95;5.78;;;7.80;54.50;;;;;;5071637;28;20037;-71
2024/02/03 09:15:37;;;;;;;6.30;2.83;;;7.80;54.70;;;;;;5070304;28;20496;-71
2024/02/03 09:18:04;;;;;;;7.18;3.60;;;7.60;54.90;;;;;;5070059;28;20040;-71
2024/02/03 09:20:30;;;;;;;;;;;7.50;55.60;;;;;;5070013;28;20124;-72
2024/02/03 09:22:56;;;;;;;3.85;2.97;;;7.40;56.40;;;;;;5070264;28;19912;-72
2024/02/03 09:25:22;;;;;;;4.65;3.25;;;7.20;55.80;;;;;;5069786;28;20387;-71
2024/02/03 09:27:48;;;;;;;1.92;1.45;;;7.00;56.10;;;;;;5071514;28;20060;-70
2024/02/03 09:30:14;;;;;;;3.20;2.42;;;7.00;56.40;;;;;;5069232;28;20124;-71
2024/02/03 09:32:40;;;;;;;2.97;2.30;;;7.00;56.40;;;;;;5071227;28;20111;-71
2024/02/03 09:35:07;;;;;;;3.80;2.10;;;7.10;56.50;;;;;;5071215;28;20397;-71
2024/02/03 09:37:33;;;;;;;4.85;2.83;;;7.60;55.20;;;;;;5069910;28;20539;-71
2024/02/03 09:39:59;;;;;;;6.88;2.63;;;8.10;53.90;;;;;;5071261;28;20385;-71
2024/02/03 09:42:25;;;;;;;5.15;2.40;;;8.20;52.90;;;;;;5069101;28;20037;-72
2024/02/03 09:44:52;;;;;;;2.35;1.33;;;8.40;52.90;;;;;;5070065;28;20032;-71
2024/02/03 09:47:18;;;;;;;5.72;2.42;;;8.50;52.30;;;;;;5069785;28;20036;-71
2024/02/03 09:49:44;;;;;;;3.10;2.13;;;9.10;52.00;;;;;;5072373;28;20024;-71
2024/02/03 09:52:14;;;;;;;2.90;1.05;;;9.20;51.10;;;;;;5090659;28;20090;-71
2024/02/03 09:54:59;;;;;;;3.38;1.88;;;9.20;50.60;;;;;;5091159;28;20029;-71
2024/02/03 09:57:27;;;;;;;4.60;2.42;;;9.20;49.80;;;;;;5089801;28;20088;-71
2024/02/03 09:59:53;;;;;;;7.13;1.63;;;9.20;49.50;;;;;;5089676;28;20064;-71
2024/02/03 10:02:19;;;;;;;2.88;2.10;;;9.20;50.80;;;;;;5089003;28;20032;-71
2024/02/03 10:04:47;;;;;;;2.55;1.42;;;9.30;50.70;;;;;;5091317;28;20372;-71
2024/02/03 10:07:19;;;;;;;2.97;1.92;;;9.40;50.50;;;;;;5089649;28;20255;-72
2024/02/03 10:09:45;;;;;;;6.78;3.42;;;9.30;50.40;;;;;;5069612;28;20426;-71
2024/02/03 10:12:30;;;;;;;7.35;3.53;;;9.40;50.50;;;;;;5068789;28;20094;-71
2024/02/03 10:15:16;;;;;;;8.40;3.28;;;9.60;50.40;;;;;;5069828;28;20123;-71
2024/02/03 10:17:43;;;;;;;6.78;2.78;;;9.60;50.20;;;;;;5070465;28;20044;-71
2024/02/03 10:20:10;;;;;;;2.65;1.77;;;9.60;50.10;;;;;;5068557;28;20032;-71
2024/02/03 10:22:36;;;;;;;2.63;1.75;;;9.70;49.60;;;;;;5070472;28;20033;-71
2024/02/03 10:25:09;;;;;;;3.03;1.17;;;9.70;50.20;;;;;;5068954;28;20052;-71
2024/02/03 10:27:36;;;;;;;8.00;2.80;;;9.60;49.70;;;;;;5069461;28;20039;-72
2024/02/03 10:30:02;;;;;;;1.83;1.70;;;9.70;49.70;;;;;;5069071;28;20048;-71
2024/02/03 10:32:28;;;;;;;;;;;9.70;49.70;;;;;;5052790;28;20605;-71
2024/02/03 10:34:55;;;;;;;2.83;2.22;;;9.90;49.20;;;;;;5069087;28;19921;-71
2024/02/03 10:37:21;;;;;;;3.97;2.90;;;10.00;48.70;;;;;;5069354;28;20072;-72
2024/02/03 10:39:48;;;;;;;6.82;3.15;;;10.10;48.80;;;;;;5069427;28;20044;-71
2024/02/03 10:42:20;;;;;;;1.92;0.93;;;10.20;48.50;;;;;;5068589;28;20447;-71
2024/02/03 10:44:51;;;;;;;5.90;2.13;;;10.20;48.30;;;;;;5073105;28;20131;-71
2024/02/03 10:47:38;;;;;;;2.35;2.15;;;10.30;47.70;;;;;;5072826;28;20031;-72
2024/02/03 10:50:10;;;;;;;2.95;1.67;;;10.70;47.90;;;;;;5072525;28;20036;-72
2024/02/03 10:52:38;;;;;;;2.00;1.20;;;11.20;47.00;;;;;;5073434;28;20025;-70
2024/02/03 10:55:07;;;;;;;3.13;1.98;;;11.70;45.20;;;;;;5072873;28;20036;-71
2024/02/03 10:57:33;;;;;;;2.95;2.47;;;11.80;45.00;;;;;;5072824;28;20112;-71
2024/02/03 11:00:18;;;;;;;;;;;11.80;45.10;;;;;;5073072;28;20045;-72
2024/02/03 11:03:03;;;;;;;2.85;1.55;;;11.90;45.30;;;;;;5072475;28;20004;-72
2024/02/03 11:05:30;;;;;;;2.38;1.45;;;12.10;44.80;;;;;;5072705;28;20041;-71
2024/02/03 11:08:19;;;;;;;2.60;2.05;;;12.10;44.50;;;;;;5072881;28;20028;-70
2024/02/03 11:10:50;;;;;;;3.08;2.15;;;12.00;44.60;;;;;;5071949;28;20033;-71
2024/02/03 11:13:56;;;;;;;2.35;1.60;;;12.20;44.30;;;;;;5072751;28;20453;-71
2024/02/03 11:16:22;;;;;;;3.58;1.80;;;12.40;43.50;;;;;;5073987;28;20036;-71
2024/02/03 11:18:50;;;;;;;1.15;0.85;;;12.70;43.20;;;;;;5073542;28;20045;-71
2024/02/03 11:21:16;;;;;;;2.67;1.25;;;13.10;42.20;;;;;;5073179;28;20071;-71
2024/02/03 11:23:44;;;;;;;2.80;1.40;;;13.30;41.40;;;;;;5073522;28;20083;-72
2024/02/03 11:26:10;;;;;;;3.28;2.38;;;13.40;41.80;;;;;;5072369;28;20033;-72
2024/02/03 11:28:36;;;;;;;3.28;2.13;;;13.40;41.70;;;;;;5055701;28;20027;-71
2024/02/03 11:33:49;;;;;;;6.47;2.97;;;13.40;41.80;;;;;;5093206;28;20115;-72
2024/02/03 11:36:15;;;;;;;11.02;4.05;;;13.40;41.30;;;;;;5093738;28;20472;-72
2024/02/03 11:39:00;;;;;;;7.53;4.35;;;13.50;40.60;;;;;;5093822;28;20044;-71
2024/02/03 11:41:26;;;;;;;4.22;2.42;;;13.70;40.90;;;;;;5074601;28;20044;-72
2024/02/03 11:43:52;;;;;;;;;;;13.90;40.60;;;;;;5092935;28;20032;-71
2024/02/03 11:46:19;;;;;;;4.13;2.28;;;14.00;40.10;;;;;;5092279;28;19920;-72
2024/02/03 11:48:45;;;;;;;;;;;14.30;39.20;;;;;;5091661;28;20362;-72
2024/02/03 11:51:14;;;;;;;6.45;2.47;;;14.20;39.20;;;;;;5090803;28;19969;-72
2024/02/03 11:53:41;;;;;;;2.13;1.55;;;14.20;39.60;;;;;;5092354;28;20477;-71
2024/02/03 11:56:07;;;;;;;11.27;1.60;;;14.30;39.70;;;;;;5092989;28;20119;-71
2024/02/03 11:58:33;;;;;;;5.60;2.22;;;14.30;39.90;;;;;;5092275;28;20117;-71
2024/02/03 12:01:18;;;;;;;3.55;1.52;;;14.30;39.80;;;;;;5092526;28;20044;-71
2024/02/03 12:03:44;;;;;;;2.13;1.77;;;14.40;39.70;;;;;;5092933;28;20396;-71
2024/02/03 12:06:10;;;;;;;5.35;2.38;;;14.60;39.50;;;;;;5092925;28;20040;-71
2024/02/03 12:08:37;;;;;;;3.33;2.45;;;14.60;37.80;;;;;;5091790;28;20520;-72
2024/02/03 12:11:05;;;;;;;4.35;2.63;;;14.60;38.00;;;;;;5090909;28;20043;-71
2024/02/03 12:13:51;;;;;;;5.57;2.33;;;14.50;38.10;;;;;;5091593;28;20029;-71
2024/02/03 12:16:17;;;;;;;2.25;1.10;;;14.40;38.20;;;;;;5087981;28;20389;-71
2024/02/03 12:18:43;;;;;;;;;;;14.40;38.60;;;;;;5071892;28;20047;-72
2024/02/03 12:21:10;;;;;;;3.47;1.00;;;14.20;38.60;;;;;;5070921;28;20007;-72
2024/02/03 12:23:37;;;;;;;4.60;1.95;;;14.10;38.30;;;;;;5060899;28;20040;-71
2024/02/03 12:26:04;;;;;;;0.77;0.52;;;14.10;38.70;;;;;;5069503;28;20038;-75
2024/02/03 12:28:32;;;;;;;1.48;1.23;;;14.00;38.70;;;;;;5069437;28;20021;-71
2024/02/03 12:30:58;;;;;;;1.67;0.95;;;14.00;38.80;;;;;;5072585;28;20041;-71
2024/02/03 12:33:24;;;;;;;;;;;14.00;39.20;;;;;;5071728;28;20025;-71
2024/02/03 12:35:51;;;;;;;1.73;0.80;;;13.90;38.50;;;;;;5091351;28;20212;-71
2024/02/03 12:38:20;;;;;;;3.40;2.33;;;13.90;38.90;;;;;;5058845;28;20489;-71
2024/02/03 12:40:47;;;;;;;4.32;1.15;;;13.90;39.20;;;;;;5070130;28;20029;-71
2024/02/03 12:43:13;;;;;;;4.75;1.25;;;13.90;39.40;;;;;;5070388;28;20022;-71
2024/02/03 12:45:39;;;;;;;2.95;1.55;;;13.80;39.00;;;;;;5070522;28;20036;-71
2024/02/03 12:48:05;;;;;;;3.15;2.25;;;13.70;39.10;;;;;;5071651;28;20414;-71
2024/02/03 12:50:33;;;;;;;;;;;13.70;39.40;;;;;;5071587;28;20101;-70
2024/02/03 12:53:00;;;;;;;2.17;1.98;;;13.60;39.90;;;;;;5074335;28;19912;-70
2024/02/03 12:55:26;;;;;;;3.70;1.95;;;13.60;39.80;;;;;;5090656;28;20032;-71
2024/02/03 12:57:53;;;;;;;2.25;1.20;;;13.60;39.50;;;;;;5091059;28;20032;-71
2024/02/03 13:00:20;;;;;;;3.42;2.47;;;13.50;39.80;;;;;;5091320;28;20035;-71